Terminal Aerodrome Forecast
Issued by NWS

Current Version | Previous Version | Graphics & Text | Print | Product List | Glossary On
Versions: 1 2 3 4 5 6 7 8 9 10 11 12 13 14 15 16 17 18 19 20 21 22 23 24 25 26 27 28
037
FTUS41 KRNK 041730
TAFLWB
TAF
KLWB 041730Z 0418/0518 00000KT P6SM SCT040 OVC080
     FM042100 12003KT P6SM VCSH SCT025 OVC040
      TEMPO 0421/0424 -RAPL
     FM050000 12004KT 4SM -RA BR OVC025
     FM050300 VRB03KT 3SM -RA BR OVC007
     FM050900 00000KT 5SM BR OVC007
     FM051300 29004KT P6SM OVC020
     FM051600 30005KT P6SM SCT025 BKN250=

USA.gov is the U.S. government's official web portal to all federal, state and local government web resources and services.